Huvudsida
METAR-TAF:

METAR-TAF

Flygplatser :

Sevillas flygplats

Sevilla, Spanien

latitud: 37-25N, longitud: 005-54W, höjd: 34 m

Aktuellt väderrapport

Denna rapport gjordes för 43 minuter sedan, klockan 04:30 UTC
Vind 4 kt från nord/nordost
Temperatur 23°C
Fuktighet 73%
Tryck 1016 hPa
Sikt 10 km eller mer
Inga moln under 1 500 m eller inga cumulonimbus

METAR: LEZL 230430Z 03004KT CAVOK 23/18 Q1016 NOSIG

Tid: 07:13 (05:13 UTC)

Väderprognos

Denna rapport gjordes för 3 timmar och 13 minuter sedan, klockan 02:00 UTC
Prognos gäller från 23 kl. 03 UTC till 24 kl. 03 UTC
Vind 4 kt från nord/nordost
Sikt 10 km eller mer
Inga moln under 1 500 m eller inga cumulonimbus
Blir
från 23 kl. 17 UTC till 23 kl. 19 UTC
Vind 10 kt från väst/sydväst

TAF: LEZL 230200Z 2303/2403 03004KT CAVOK TX40/2315Z TN23/2305Z BECMG 2317/2319 24010KT

Aktuella väderrapporter och prognoser från 4000 flygplatser (METAR- och TAF-rapporter).

De tillgängliga stationerna syns som gula och röda prickar på kartan.

För musen över prickarna för att se namnen på stationerna.

Klicka sedan för att få väderrapporter och prognoser.

För att ändra kartan: Klicka på de gröna knapparna med ett svart kors på för att zooma in; den gröna knappen med ett streck på för att zooma ut; eller på de gröna pilarna för angränsande kartor.


METAR-TAF: